createdAt,value
2018-05-08T00:00:49.504Z,100535.78
2018-05-08T00:01:51.992Z,100538.77
2018-05-08T00:02:54.501Z,100533.64
2018-05-08T00:03:57.002Z,100536.81
2018-05-08T00:04:59.484Z,100536.01
2018-05-08T00:06:01.982Z,100529.67
2018-05-08T00:07:04.455Z,100537.22
2018-05-08T00:08:06.968Z,100537.39
2018-05-08T00:09:09.479Z,100530.07
2018-05-08T00:10:11.958Z,100538.77
2018-05-08T00:11:14.433Z,100534.84
2018-05-08T00:12:16.920Z,100535.69
2018-05-08T00:13:19.434Z,100531.86
2018-05-08T00:14:22.006Z,100527.53
2018-05-08T00:15:24.580Z,100530.30
2018-05-08T00:16:27.148Z,100532.84
2018-05-08T00:17:29.643Z,100531.09
2018-05-08T00:18:32.141Z,100531.53
2018-05-08T00:19:34.644Z,100531.68
2018-05-08T00:20:37.138Z,100529.72
2018-05-08T00:21:39.620Z,100522.80
2018-05-08T00:22:42.124Z,100524.03
2018-05-08T00:23:44.626Z,100525.42
2018-05-08T00:24:47.200Z,100524.03
2018-05-08T00:25:49.692Z,100528.41
2018-05-08T00:26:52.253Z,100529.80
2018-05-08T00:27:54.677Z,100525.06
2018-05-08T00:28:57.182Z,100527.25
2018-05-08T00:29:59.677Z,100524.66
2018-05-08T00:31:02.165Z,100528.81
2018-05-08T00:32:04.650Z,100526.62
2018-05-08T00:33:07.125Z,100523.45
2018-05-08T00:34:09.635Z,100524.26
2018-05-08T00:35:12.135Z,100523.28
2018-05-08T00:36:14.618Z,100525.64
2018-05-08T00:37:17.127Z,100526.22
2018-05-08T00:38:19.627Z,100513.36
2018-05-08T00:39:22.144Z,100519.70
2018-05-08T00:40:24.704Z,100522.07
2018-05-08T00:41:27.267Z,100518.90
2018-05-08T00:42:29.775Z,100516.71
2018-05-08T00:43:32.280Z,100512.38
2018-05-08T00:44:34.785Z,100507.83
2018-05-08T00:45:37.433Z,100507.83
2018-05-08T00:46:39.913Z,100511.58
2018-05-08T00:47:42.401Z,100508.81
2018-05-08T00:48:44.893Z,100509.21
2018-05-08T00:49:47.400Z,100496.94
2018-05-08T00:50:49.903Z,100502.47
2018-05-08T00:51:52.410Z,100502.04
2018-05-08T00:52:54.882Z,100501.09
2018-05-08T00:53:57.387Z,100501.09
2018-05-08T00:55:04.835Z,100502.04
2018-05-08T00:56:07.342Z,100496.10
2018-05-08T00:57:09.816Z,100493.91
2018-05-08T00:58:12.287Z,100499.05
2018-05-08T00:59:14.771Z,100492.93
2018-05-08T01:00:17.262Z,100490.16
2018-05-08T01:01:19.731Z,100486.99
2018-05-08T01:02:22.232Z,100485.86
2018-05-08T01:03:24.716Z,100488.20
2018-05-08T01:04:27.228Z,100488.05
2018-05-08T01:05:29.753Z,100488.05
2018-05-08T01:06:32.231Z,100485.43
2018-05-08T01:07:34.700Z,100491.63
2018-05-08T01:08:37.209Z,100487.66
2018-05-08T01:09:39.720Z,100485.86
2018-05-08T01:10:42.236Z,100486.67
2018-05-08T01:11:44.702Z,100490.82
2018-05-08T01:12:47.202Z,100491.22
2018-05-08T01:13:49.715Z,100490.42
2018-05-08T01:14:52.205Z,100486.27
2018-05-08T01:15:54.799Z,100487.66
2018-05-08T01:16:57.324Z,100490.97
2018-05-08T01:17:59.838Z,100487.25
2018-05-08T01:19:02.332Z,100486.81
2018-05-08T01:20:04.816Z,100486.81
2018-05-08T01:21:07.325Z,100482.66
2018-05-08T01:22:09.824Z,100484.05
2018-05-08T01:23:12.327Z,100490.82
2018-05-08T01:24:14.835Z,100484.88
2018-05-08T01:25:17.321Z,100490.42
2018-05-08T01:26:19.824Z,100490.97
2018-05-08T01:27:22.328Z,100488.37
2018-05-08T01:28:24.806Z,100492.35
2018-05-08T01:29:27.294Z,100489.58
2018-05-08T01:30:29.784Z,100493.19
2018-05-08T01:31:32.308Z,100489.18
2018-05-08T01:32:34.815Z,100492.78
2018-05-08T01:33:37.320Z,100487.66
2018-05-08T01:34:39.794Z,100494.16
2018-05-08T01:35:42.339Z,100492.78
2018-05-08T01:36:44.847Z,100491.40
2018-05-08T01:37:47.337Z,100491.80
2018-05-08T01:38:49.843Z,100494.16
2018-05-08T01:39:52.317Z,100490.56
2018-05-08T01:40:54.828Z,100488.55
2018-05-08T01:41:57.389Z,100487.57
2018-05-08T01:42:59.949Z,100490.70
2018-05-08T01:44:02.510Z,100487.13
2018-05-08T01:45:04.996Z,100478.82
2018-05-08T01:46:07.503Z,100481.77
2018-05-08T01:47:10.019Z,100485.11
2018-05-08T01:48:12.527Z,100481.54
2018-05-08T01:49:15.036Z,100473.81
2018-05-08T01:50:17.536Z,100474.80
2018-05-08T01:51:20.025Z,100474.80
2018-05-08T01:52:22.510Z,100474.98
2018-05-08T01:53:25.011Z,100470.20
2018-05-08T01:54:27.483Z,100464.66
2018-05-08T01:55:29.958Z,100472.78
2018-05-08T01:56:32.440Z,100467.03
2018-05-08T01:57:34.933Z,100467.03
2018-05-08T01:58:37.402Z,100467.03
2018-05-08T01:59:39.870Z,100464.04
2018-05-08T02:00:42.370Z,100467.61
2018-05-08T02:01:44.862Z,100465.83
2018-05-08T02:02:47.349Z,100466.80
2018-05-08T02:03:49.833Z,100465.42
2018-05-08T02:04:52.339Z,100467.78
2018-05-08T02:05:54.828Z,100470.15
2018-05-08T02:06:57.329Z,100467.38
2018-05-08T02:07:59.857Z,100467.38
2018-05-08T02:09:02.419Z,100460.64
2018-05-08T02:10:04.979Z,100458.68
2018-05-08T02:11:07.464Z,100460.06
2018-05-08T02:12:09.991Z,100454.53
2018-05-08T02:13:12.495Z,100457.87
2018-05-08T02:14:14.999Z,100456.09
2018-05-08T02:15:17.506Z,100462.03
2018-05-08T02:16:20.008Z,100459.27
2018-05-08T02:17:22.518Z,100456.49
2018-05-08T02:18:24.986Z,100452.74
2018-05-08T02:19:27.501Z,100456.09
2018-05-08T02:20:29.975Z,100451.53
2018-05-08T02:21:32.442Z,100448.37
2018-05-08T02:22:34.945Z,100445.60
2018-05-08T02:23:37.459Z,100449.75
2018-05-08T02:24:39.956Z,100450.16
2018-05-08T02:25:42.445Z,100447.97
2018-05-08T02:26:44.938Z,100450.16
2018-05-08T02:27:47.492Z,100449.34
2018-05-08T02:28:49.973Z,100446.98
2018-05-08T02:29:52.460Z,100447.39
2018-05-08T02:30:54.934Z,100447.39
2018-05-08T02:31:57.447Z,100446.81
2018-05-08T02:32:59.959Z,100441.09
2018-05-08T02:34:02.467Z,100447.03
2018-05-08T02:35:04.987Z,100438.73
2018-05-08T02:36:07.549Z,100445.47
2018-05-08T02:37:10.051Z,100441.90
2018-05-08T02:38:12.556Z,100441.09
2018-05-08T02:39:15.031Z,100436.36
2018-05-08T02:40:17.529Z,100441.50
2018-05-08T02:41:20.021Z,100442.88
2018-05-08T02:42:22.490Z,100441.09
2018-05-08T02:43:25.001Z,100443.06
2018-05-08T02:44:27.514Z,100443.06
2018-05-08T02:45:30.015Z,100441.67
2018-05-08T02:46:32.523Z,100440.29
2018-05-08T02:47:35.013Z,100437.52
2018-05-08T02:48:37.517Z,100435.33
2018-05-08T02:49:40.078Z,100445.42
2018-05-08T02:50:42.649Z,100436.14
2018-05-08T02:51:45.151Z,100436.14
2018-05-08T02:52:47.648Z,100437.13
2018-05-08T02:53:50.153Z,100436.14
2018-05-08T02:54:52.641Z,100434.36
2018-05-08T02:55:55.125Z,100440.06
2018-05-08T02:56:57.635Z,100433.15
2018-05-08T02:58:00.184Z,100431.19
2018-05-08T02:59:02.742Z,100435.91
2018-05-08T03:00:05.226Z,100429.58
2018-05-08T03:01:07.760Z,100433.15
2018-05-08T03:02:10.249Z,100429.17
2018-05-08T03:03:12.736Z,100430.16
2018-05-08T03:04:15.255Z,100432.52
2018-05-08T03:05:17.763Z,100429.35
2018-05-08T03:06:20.233Z,100432.12
2018-05-08T03:07:22.800Z,100431.49
2018-05-08T03:08:25.281Z,100431.89
2018-05-08T03:09:27.776Z,100431.09
2018-05-08T03:10:30.280Z,100431.49
2018-05-08T03:11:32.755Z,100436.22
2018-05-08T03:12:35.243Z,100436.63
2018-05-08T03:13:37.747Z,100428.47
2018-05-08T03:14:40.271Z,100429.05
2018-05-08T03:15:42.782Z,100432.63
2018-05-08T03:16:45.279Z,100426.28
2018-05-08T03:17:47.766Z,100423.70
2018-05-08T03:18:50.253Z,100430.61
2018-05-08T03:19:52.775Z,100434.77
2018-05-08T03:20:55.267Z,100426.46
2018-05-08T03:21:57.760Z,100431.02
2018-05-08T03:23:00.262Z,100434.77
2018-05-08T03:24:02.753Z,100431.19
2018-05-08T03:25:05.314Z,100425.08
2018-05-08T03:26:07.790Z,100426.46
2018-05-08T03:27:10.312Z,100429.63
2018-05-08T03:28:12.795Z,100423.70
2018-05-08T03:29:15.296Z,100427.04
2018-05-08T03:30:17.801Z,100421.91
2018-05-08T03:31:20.307Z,100428.02
2018-05-08T03:32:22.782Z,100427.84
2018-05-08T03:33:25.250Z,100423.70
2018-05-08T03:34:27.718Z,100422.53
2018-05-08T03:35:30.202Z,100417.41
2018-05-08T03:36:32.704Z,100421.55
2018-05-08T03:37:35.206Z,100417.66
2018-05-08T03:38:37.707Z,100422.21
2018-05-08T03:39:40.192Z,100421.81
2018-05-08T03:40:42.721Z,100421.00
2018-05-08T03:41:45.209Z,100421.81
2018-05-08T03:42:47.702Z,100422.39
2018-05-08T03:43:50.203Z,100420.83
2018-05-08T03:44:52.710Z,100417.80
2018-05-08T03:45:55.228Z,100415.62
2018-05-08T03:46:57.717Z,100414.23
2018-05-08T03:48:00.301Z,100415.04
2018-05-08T03:49:02.953Z,100413.25
2018-05-08T03:50:05.354Z,100415.22
2018-05-08T03:51:07.945Z,100415.22
2018-05-08T03:52:10.517Z,100413.03
2018-05-08T03:53:12.994Z,100409.45
2018-05-08T03:54:15.498Z,100411.24
2018-05-08T03:55:18.011Z,100408.48
2018-05-08T03:56:20.540Z,100407.09
2018-05-08T03:57:23.061Z,100406.69
2018-05-08T03:58:25.527Z,100408.25
2018-05-08T03:59:28.060Z,100404.50
2018-05-08T04:00:42.494Z,100410.03
2018-05-08T04:01:57.006Z,100405.08
2018-05-08T04:03:11.212Z,100403.70
2018-05-08T04:04:25.492Z,100407.63
2018-05-08T04:07:20.087Z,100404.69
2018-05-08T04:08:33.464Z,100403.08
2018-05-08T04:09:35.973Z,100402.67
2018-05-08T04:10:38.461Z,100395.75
2018-05-08T04:11:40.927Z,100404.05
2018-05-08T04:12:43.468Z,100400.70
2018-05-08T04:13:45.964Z,100395.35
2018-05-08T04:14:48.475Z,100403.25
2018-05-08T04:15:50.966Z,100400.48
2018-05-08T04:16:53.453Z,100399.69
2018-05-08T04:17:55.940Z,100403.25
2018-05-08T04:18:58.421Z,100396.11
2018-05-08T04:20:00.909Z,100398.48
2018-05-08T04:21:03.433Z,100398.48
2018-05-08T04:22:05.934Z,100391.73
2018-05-08T04:23:08.427Z,100398.30
2018-05-08T04:24:10.895Z,100400.89
2018-05-08T04:25:13.423Z,100397.31
2018-05-08T04:26:15.981Z,100395.53
2018-05-08T04:27:20.241Z,100392.98
2018-05-08T04:28:22.728Z,100390.84
2018-05-08T04:29:25.221Z,100390.84
2018-05-08T04:30:27.690Z,100391.25
2018-05-08T04:31:30.200Z,100393.84
2018-05-08T04:32:32.707Z,100382.77
2018-05-08T04:33:35.207Z,100386.34
2018-05-08T04:34:37.683Z,100388.88
2018-05-08T04:35:40.172Z,100385.89
2018-05-08T04:36:42.747Z,100394.38
2018-05-08T04:37:45.159Z,100388.39
2018-05-08T04:38:47.637Z,100391.33
2018-05-08T04:39:50.129Z,100387.36
2018-05-08T04:40:52.615Z,100390.30
2018-05-08T04:41:55.199Z,100382.95
2018-05-08T04:42:57.763Z,100387.27
2018-05-08T04:44:00.266Z,100388.83
2018-05-08T04:45:02.778Z,100385.44
2018-05-08T04:46:05.262Z,100378.70
2018-05-08T04:47:07.731Z,100380.81
2018-05-08T04:48:10.255Z,100383.17
2018-05-08T04:49:13.334Z,100379.20
2018-05-08T04:50:15.802Z,100376.61
2018-05-08T04:51:18.286Z,100377.38
2018-05-08T04:52:20.800Z,100375.77
2018-05-08T04:53:23.312Z,100378.53
2018-05-08T04:54:25.829Z,100375.94
2018-05-08T04:55:28.317Z,100376.52
2018-05-08T04:56:30.837Z,100370.59
2018-05-08T04:57:33.398Z,100376.70
2018-05-08T04:58:35.925Z,100373.94
2018-05-08T04:59:38.413Z,100368.58
2018-05-08T05:00:40.902Z,100370.36
2018-05-08T05:01:43.388Z,100368.98
2018-05-08T05:02:45.953Z,100374.11
2018-05-08T05:03:48.390Z,100367.59
2018-05-08T05:04:50.877Z,100367.59
2018-05-08T05:05:53.449Z,100369.38
2018-05-08T05:06:55.935Z,100369.38
2018-05-08T05:07:58.406Z,100365.64
2018-05-08T05:09:00.910Z,100369.61
2018-05-08T05:10:03.403Z,100366.27
2018-05-08T05:11:05.945Z,100369.83
2018-05-08T05:12:08.431Z,100367.29
2018-05-08T05:13:10.906Z,100364.12
2018-05-08T05:14:13.439Z,100364.92
2018-05-08T05:15:15.997Z,100369.92
2018-05-08T05:16:18.559Z,100367.56
2018-05-08T05:17:21.120Z,100361.80
2018-05-08T05:18:23.615Z,100364.92
2018-05-08T05:19:26.136Z,100365.23
2018-05-08T05:20:28.705Z,100364.78
2018-05-08T05:21:31.194Z,100364.16
2018-05-08T05:22:33.685Z,100365.27
2018-05-08T05:23:36.220Z,100361.63
2018-05-08T05:24:38.732Z,100361.98
2018-05-08T05:25:41.294Z,100358.59
2018-05-08T05:26:43.776Z,100360.95
2018-05-08T05:27:46.309Z,100359.57
2018-05-08T05:28:48.813Z,100355.55
2018-05-08T05:29:51.431Z,100362.42
2018-05-08T05:30:53.945Z,100360.16
2018-05-08T05:31:56.437Z,100357.12
2018-05-08T05:32:58.925Z,100355.83
2018-05-08T05:34:01.428Z,100355.43
2018-05-08T05:35:03.938Z,100359.53
2018-05-08T05:36:06.410Z,100363.98
2018-05-08T05:37:08.893Z,100362.45
2018-05-08T05:38:11.393Z,100362.18
2018-05-08T05:39:13.959Z,100357.95
2018-05-08T05:40:16.526Z,100357.55
2018-05-08T05:41:19.088Z,100360.31
2018-05-08T05:42:21.571Z,100355.59
2018-05-08T05:43:24.056Z,100361.70
2018-05-08T05:44:26.657Z,100354.03
2018-05-08T05:45:29.191Z,100358.03
2018-05-08T05:46:31.675Z,100355.50
2018-05-08T05:47:34.180Z,100359.87
2018-05-08T05:48:36.677Z,100355.37
2018-05-08T05:49:39.255Z,100359.34
2018-05-08T05:50:41.762Z,100356.39
2018-05-08T05:51:44.245Z,100352.47
2018-05-08T05:52:46.727Z,100353.50
2018-05-08T05:53:49.198Z,100358.86
2018-05-08T05:54:51.685Z,100354.53
2018-05-08T05:55:54.166Z,100357.70
2018-05-08T05:56:56.643Z,100357.92
2018-05-08T05:57:59.126Z,100355.56
2018-05-08T05:59:01.616Z,100350.43
2018-05-08T06:00:04.196Z,100350.83
2018-05-08T06:01:06.655Z,100354.80
2018-05-08T06:02:09.159Z,100351.46
2018-05-08T06:03:11.720Z,100351.46
2018-05-08T06:04:14.229Z,100348.30
2018-05-08T06:05:16.734Z,100346.33
2018-05-08T06:06:19.328Z,100347.31
2018-05-08T06:07:21.765Z,100350.30
2018-05-08T06:08:24.257Z,100346.33
2018-05-08T06:09:26.751Z,100348.92
2018-05-08T06:10:29.249Z,100352.27
2018-05-08T06:11:31.799Z,100350.30
2018-05-08T06:12:34.265Z,100347.14
2018-05-08T06:13:36.757Z,100345.17
2018-05-08T06:14:39.245Z,100347.80
2018-05-08T06:15:41.738Z,100347.39
2018-05-08T06:16:44.256Z,100349.72
2018-05-08T06:17:46.839Z,100347.39
2018-05-08T06:18:49.333Z,100346.01
2018-05-08T06:19:51.815Z,100342.81
2018-05-08T06:20:54.307Z,100339.90
2018-05-08T06:21:56.798Z,100339.50
2018-05-08T06:22:59.281Z,100340.88
2018-05-08T06:24:01.762Z,100339.50
2018-05-08T06:25:04.257Z,100338.11
2018-05-08T06:26:06.731Z,100341.42
2018-05-08T06:27:09.236Z,100343.24
2018-05-08T06:28:11.726Z,100338.11
2018-05-08T06:29:14.210Z,100344.05
2018-05-08T06:30:16.786Z,100343.47
2018-05-08T06:31:19.301Z,100339.32
2018-05-08T06:32:21.863Z,100336.33
2018-05-08T06:33:24.421Z,100340.70
2018-05-08T06:34:26.957Z,100344.85
2018-05-08T06:35:29.467Z,100339.32
2018-05-08T06:36:31.954Z,100338.34
2018-05-08T06:37:34.484Z,100335.17
2018-05-08T06:38:36.997Z,100333.39
2018-05-08T06:39:39.476Z,100327.86
2018-05-08T06:40:41.975Z,100329.23
2018-05-08T06:41:44.450Z,100330.45
2018-05-08T06:42:46.996Z,100331.03
2018-05-08T06:43:49.471Z,100334.59
2018-05-08T06:44:52.002Z,100330.05
2018-05-08T06:45:54.470Z,100329.06
2018-05-08T06:46:56.986Z,100325.31
2018-05-08T06:47:59.571Z,100326.30
2018-05-08T06:49:02.108Z,100327.09
2018-05-08T06:50:04.673Z,100327.09
2018-05-08T06:51:07.172Z,100322.95
2018-05-08T06:52:09.685Z,100326.70
2018-05-08T06:53:12.204Z,100328.88
2018-05-08T06:54:14.675Z,100323.35
2018-05-08T06:55:17.142Z,100326.30
2018-05-08T06:56:19.723Z,100327.91
2018-05-08T06:57:22.209Z,100324.73
2018-05-08T06:58:24.706Z,100331.25
2018-05-08T06:59:27.201Z,100326.92
2018-05-08T07:00:29.685Z,100332.45
2018-05-08T07:01:32.215Z,100326.52
2018-05-08T07:02:34.692Z,100325.54
2018-05-08T07:03:37.198Z,100329.29
2018-05-08T07:04:39.669Z,100329.86
2018-05-08T07:05:42.152Z,100333.03
2018-05-08T07:06:44.626Z,100332.05
2018-05-08T07:07:47.127Z,100323.76
2018-05-08T07:08:49.655Z,100330.27
2018-05-08T07:09:52.159Z,100335.39
2018-05-08T07:10:54.649Z,100324.96
2018-05-08T07:11:57.124Z,100330.67
2018-05-08T07:12:59.612Z,100326.52
2018-05-08T07:14:02.123Z,100332.86
2018-05-08T07:15:04.621Z,100326.34
2018-05-08T07:16:07.144Z,100328.30
2018-05-08T07:17:09.655Z,100322.78
2018-05-08T07:18:12.157Z,100327.73
2018-05-08T07:19:15.435Z,100327.33
2018-05-08T07:20:17.925Z,100323.98
2018-05-08T07:21:20.462Z,100323.58
2018-05-08T07:22:23.008Z,100322.59
2018-05-08T07:23:25.532Z,100322.59
2018-05-08T07:24:28.047Z,100323.41
2018-05-08T07:25:30.536Z,100323.41
2018-05-08T07:26:33.042Z,100321.62
2018-05-08T07:27:35.560Z,100318.85
2018-05-08T07:28:38.039Z,100314.70
2018-05-08T07:29:40.543Z,100321.62
2018-05-08T07:30:43.200Z,100314.92
2018-05-08T07:31:45.667Z,100318.67
2018-05-08T07:32:48.198Z,100312.56
2018-05-08T07:33:50.761Z,100315.51
2018-05-08T07:34:53.263Z,100318.09
2018-05-08T07:35:55.775Z,100312.16
2018-05-08T07:36:58.265Z,100314.52
2018-05-08T07:38:00.795Z,100315.33
2018-05-08T07:39:03.337Z,100312.74
2018-05-08T07:40:05.822Z,100313.95
2018-05-08T07:41:08.339Z,100316.13
2018-05-08T07:42:10.918Z,100316.56
2018-05-08T07:43:13.387Z,100318.75
2018-05-08T07:44:15.911Z,100314.20
2018-05-08T07:45:18.412Z,100319.16
2018-05-08T07:46:20.935Z,100322.50
2018-05-08T07:47:23.446Z,100322.90
2018-05-08T07:48:25.955Z,100320.53
2018-05-08T07:49:28.484Z,100315.41
2018-05-08T07:50:30.977Z,100316.79
2018-05-08T07:51:33.484Z,100317.77
2018-05-08T07:52:35.960Z,100322.32
2018-05-08T07:53:38.448Z,100318.17
2018-05-08T07:54:40.975Z,100322.14
2018-05-08T07:55:43.465Z,100316.21
2018-05-08T07:56:46.060Z,100316.61
2018-05-08T07:57:48.535Z,100315.23
2018-05-08T07:58:51.026Z,100314.83
2018-05-08T07:59:53.636Z,100317.23
2018-05-08T08:00:56.196Z,100312.69
2018-05-08T08:01:58.699Z,100317.41
2018-05-08T08:03:01.215Z,100311.48
2018-05-08T08:04:03.784Z,100311.30
2018-05-08T08:05:06.342Z,100321.39
2018-05-08T08:06:08.813Z,100307.95
2018-05-08T08:07:11.323Z,100318.04
2018-05-08T08:08:13.809Z,100310.33
2018-05-08T08:09:16.336Z,100305.59
2018-05-08T08:10:18.879Z,100310.14
2018-05-08T08:11:21.366Z,100307.95
2018-05-08T08:12:23.850Z,100311.93
2018-05-08T08:13:26.345Z,100307.38
2018-05-08T08:14:28.833Z,100308.19
2018-05-08T08:15:31.340Z,100305.02
2018-05-08T08:16:33.835Z,100307.20
2018-05-08T08:17:36.325Z,100304.26
2018-05-08T08:18:38.873Z,100309.16
2018-05-08T08:19:41.325Z,100304.03
2018-05-08T08:20:43.843Z,100303.45
2018-05-08T08:21:46.337Z,100301.09
2018-05-08T08:22:48.828Z,100299.70
2018-05-08T08:23:51.384Z,100300.69
2018-05-08T08:24:53.830Z,100297.92
2018-05-08T08:25:56.359Z,100294.17
2018-05-08T08:26:58.875Z,100290.83
2018-05-08T08:28:01.350Z,100295.78
2018-05-08T08:29:03.845Z,100291.81
2018-05-08T08:30:06.324Z,100294.80
2018-05-08T08:31:08.901Z,100295.38
2018-05-08T08:32:11.495Z,100289.85
2018-05-08T08:33:13.967Z,100291.45
2018-05-08T08:34:16.487Z,100285.52
2018-05-08T08:35:19.015Z,100288.69
2018-05-08T08:36:21.524Z,100285.75
2018-05-08T08:37:24.012Z,100290.70
2018-05-08T08:38:26.545Z,100281.20
2018-05-08T08:39:29.034Z,100286.55
2018-05-08T08:40:31.563Z,100279.64
2018-05-08T08:41:34.035Z,100285.56
2018-05-08T08:42:36.521Z,100284.98
2018-05-08T08:43:39.023Z,100282.66
2018-05-08T08:44:41.508Z,100278.08
2018-05-08T08:45:44.039Z,100285.82
2018-05-08T08:46:46.535Z,100283.05
2018-05-08T08:47:49.109Z,100283.86
2018-05-08T08:48:51.582Z,100285.24
2018-05-08T08:49:54.163Z,100282.88
2018-05-08T08:50:56.658Z,100282.88
2018-05-08T08:51:59.146Z,100283.28
2018-05-08T08:53:01.815Z,100285.06
2018-05-08T08:54:04.291Z,100284.48
2018-05-08T08:55:06.844Z,100280.33
2018-05-08T08:56:09.435Z,100283.91
2018-05-08T08:57:11.853Z,100279.35
2018-05-08T08:58:14.326Z,100280.16
2018-05-08T08:59:16.820Z,100278.38
2018-05-08T09:00:19.355Z,100280.95
2018-05-08T09:01:21.854Z,100275.42
2018-05-08T09:02:24.377Z,100275.03
2018-05-08T09:03:26.873Z,100273.06
2018-05-08T09:04:29.346Z,100273.87
2018-05-08T09:05:31.829Z,100276.63
2018-05-08T09:06:34.334Z,100275.25
2018-05-08T09:07:36.819Z,100277.03
2018-05-08T09:08:39.290Z,100274.27
2018-05-08T09:09:41.784Z,100268.73
2018-05-08T09:10:44.270Z,100271.33
2018-05-08T09:11:46.773Z,100275.47
2018-05-08T09:12:49.278Z,100274.49
2018-05-08T09:13:51.762Z,100278.64
2018-05-08T09:14:54.249Z,100266.19
2018-05-08T09:15:56.725Z,100267.98
2018-05-08T09:16:59.253Z,100266.99
2018-05-08T09:18:01.736Z,100261.46
2018-05-08T09:19:04.237Z,100263.65
2018-05-08T09:20:06.744Z,100257.72
2018-05-08T09:21:09.252Z,100253.56
2018-05-08T09:22:11.734Z,100255.75
2018-05-08T09:23:14.225Z,100255.34
2018-05-08T09:24:16.737Z,100256.16
2018-05-08T09:25:19.235Z,100249.64
2018-05-08T09:26:21.749Z,100248.26
2018-05-08T09:27:24.303Z,100250.04
2018-05-08T09:28:26.766Z,100251.64
2018-05-08T09:29:29.276Z,100248.66
2018-05-08T09:30:31.840Z,100238.80
2018-05-08T09:31:34.359Z,100239.20
2018-05-08T09:32:36.851Z,100243.34
2018-05-08T09:33:39.327Z,100238.40
2018-05-08T09:34:41.859Z,100239.59
2018-05-08T09:35:44.365Z,100235.67
2018-05-08T09:36:46.912Z,100239.42
2018-05-08T09:37:49.401Z,100234.29
2018-05-08T09:38:51.930Z,100230.54
2018-05-08T09:39:54.491Z,100230.36
2018-05-08T09:40:57.069Z,100229.96
2018-05-08T09:41:59.566Z,100226.03
2018-05-08T09:43:02.056Z,100227.41
2018-05-08T09:44:04.534Z,100226.44
2018-05-08T09:45:07.009Z,100227.23
2018-05-08T09:46:09.535Z,100226.25
2018-05-08T09:47:12.059Z,100225.67
2018-05-08T09:48:14.551Z,100225.67
2018-05-08T09:49:17.053Z,100227.05
2018-05-08T09:50:19.537Z,100218.76
2018-05-08T09:51:22.045Z,100221.92
2018-05-08T09:52:24.557Z,100221.92
2018-05-08T09:53:27.026Z,100219.56
2018-05-08T09:54:29.513Z,100219.56
2018-05-08T09:55:32.002Z,100218.00
2018-05-08T09:56:34.498Z,100215.81
2018-05-08T09:57:37.019Z,100212.47
2018-05-08T09:58:39.526Z,100216.22
2018-05-08T09:59:42.009Z,100210.53
2018-05-08T10:00:44.475Z,100210.09
2018-05-08T10:01:46.993Z,100207.77
2018-05-08T10:02:49.505Z,100209.95
2018-05-08T10:03:51.992Z,100205.80
2018-05-08T10:04:54.487Z,100205.63
2018-05-08T10:05:57.059Z,100196.12
2018-05-08T10:06:59.623Z,100198.70
2018-05-08T10:08:02.181Z,100191.39
2018-05-08T10:09:05.615Z,100196.34
2018-05-08T10:10:08.101Z,100200.09
2018-05-08T10:11:10.583Z,100190.81
2018-05-08T10:12:13.097Z,100194.38
2018-05-08T10:13:15.651Z,100189.83
2018-05-08T10:14:18.171Z,100191.03
2018-05-08T10:15:20.650Z,100185.50
2018-05-08T10:16:23.212Z,100186.08
2018-05-08T10:17:25.703Z,100184.52
2018-05-08T10:18:28.252Z,100185.31
2018-05-08T10:19:30.780Z,100185.90
2018-05-08T10:20:33.338Z,100185.31
2018-05-08T10:21:35.820Z,100186.70
2018-05-08T10:22:38.327Z,100185.31
2018-05-08T10:23:40.832Z,100177.82
2018-05-08T10:24:43.321Z,100175.05
2018-05-08T10:25:45.827Z,100177.23
2018-05-08T10:26:48.332Z,100172.28
2018-05-08T10:27:50.825Z,100175.85
2018-05-08T10:28:53.328Z,100169.52
2018-05-08T10:29:55.841Z,100166.57
2018-05-08T10:30:58.334Z,100164.79
2018-05-08T10:32:00.840Z,100162.42
2018-05-08T10:33:03.425Z,100164.20
2018-05-08T10:34:05.871Z,100163.22
2018-05-08T10:35:08.342Z,100156.70
2018-05-08T10:36:10.832Z,100156.70
2018-05-08T10:37:13.321Z,100153.36
2018-05-08T10:38:15.809Z,100155.14
2018-05-08T10:39:18.296Z,100156.92
2018-05-08T10:40:20.834Z,100154.56
2018-05-08T10:41:23.321Z,100154.97
2018-05-08T10:42:25.821Z,100146.66
2018-05-08T10:43:28.404Z,100149.65
2018-05-08T10:44:30.966Z,100149.83
2018-05-08T10:45:33.524Z,100148.27
2018-05-08T10:46:35.994Z,100146.08
2018-05-08T10:47:38.495Z,100143.72
2018-05-08T10:48:41.004Z,100147.28
2018-05-08T10:49:43.535Z,100149.25
2018-05-08T10:50:46.117Z,100144.11
2018-05-08T10:51:48.604Z,100145.91
2018-05-08T10:52:51.137Z,100138.41
2018-05-08T10:53:53.740Z,100141.57
2018-05-08T10:54:56.364Z,100141.75
2018-05-08T10:55:58.868Z,100137.02
2018-05-08T10:57:01.376Z,100138.41
2018-05-08T10:58:03.886Z,100133.27
2018-05-08T10:59:06.399Z,100135.45
2018-05-08T11:00:08.922Z,100135.05
2018-05-08T11:01:11.507Z,100134.08
2018-05-08T11:02:13.993Z,100131.70
2018-05-08T11:03:16.487Z,100130.33
2018-05-08T11:04:18.960Z,100123.80
2018-05-08T11:05:21.482Z,100124.79
2018-05-08T11:06:23.992Z,100125.59
2018-05-08T11:07:26.478Z,100129.34
2018-05-08T11:08:28.983Z,100126.97
2018-05-08T11:09:31.476Z,100127.38
2018-05-08T11:10:33.984Z,100130.54
2018-05-08T11:11:36.450Z,100121.44
2018-05-08T11:12:38.936Z,100121.84
2018-05-08T11:13:41.420Z,100119.88
2018-05-08T11:14:43.948Z,100120.86
2018-05-08T11:15:46.446Z,100123.05
2018-05-08T11:16:48.944Z,100115.73
2018-05-08T11:17:51.434Z,100116.13
2018-05-08T11:18:53.925Z,100116.13
2018-05-08T11:19:56.437Z,100114.34
2018-05-08T11:20:58.939Z,100109.79
2018-05-08T11:22:01.414Z,100106.44
2018-05-08T11:23:03.946Z,100106.44
2018-05-08T11:24:06.510Z,100108.41
2018-05-08T11:25:09.020Z,100106.05
2018-05-08T11:26:11.512Z,100105.06
2018-05-08T11:27:14.020Z,100110.01
2018-05-08T11:28:16.646Z,100105.46
2018-05-08T11:29:19.203Z,100097.96
2018-05-08T11:30:21.768Z,100103.89
2018-05-08T11:31:24.269Z,100103.89
2018-05-08T11:32:26.765Z,100109.03
2018-05-08T11:33:29.253Z,100101.13
2018-05-08T11:34:31.760Z,100099.34
2018-05-08T11:35:34.272Z,100099.16
2018-05-08T11:36:36.756Z,100100.55
2018-05-08T11:37:39.241Z,100101.93
2018-05-08T11:38:41.724Z,100095.02
2018-05-08T11:39:44.258Z,100096.39
2018-05-08T11:40:46.787Z,100094.83
2018-05-08T11:41:49.281Z,100092.06
2018-05-08T11:42:51.786Z,100083.36
2018-05-08T11:43:54.269Z,100084.97
2018-05-08T11:44:56.747Z,100080.02
2018-05-08T11:45:59.267Z,100082.78
2018-05-08T11:47:01.774Z,100068.95
2018-05-08T11:48:04.260Z,100079.61
2018-05-08T11:49:06.745Z,100076.27
2018-05-08T11:50:09.340Z,100075.06
2018-05-08T11:51:11.802Z,100076.27
2018-05-08T11:52:14.305Z,100076.66
2018-05-08T11:53:16.782Z,100077.25
2018-05-08T11:54:19.265Z,100077.25
2018-05-08T11:55:21.768Z,100080.23
2018-05-08T11:56:24.335Z,100065.59